Mutty's Pride — V4TL — position and weather

sailwx.info

Track history (hours):
 
Tides and Currents Weather Stations Pressure Air Temp Water Temp Dewpoint Dewpoint Depression Visibility Wind Speed Wind Dir Waves Ship Positions

Mutty's Pride

Last reported at 2018-Feb-19 03:58 UTC. Time now 2018-Feb-19 04:13 UTC.
Position N 18°01' W 063°03'.

Length 60 m; draft 3 m.

Type: Ship. MMSI: 341504000.

Date/timePositionNaut miles runAvg speedWind from/ knotsBaromVisibWave heightAir tempDewpointWater temp
2018-Feb-19 03:58N 18°01' W 063°03'0 0.0
2018-Feb-19 03:26N 18°01' W 063°03'0 0.0
2018-Feb-19 03:00N 18°01' W 063°03'0 0.0
2018-Feb-19 02:26N 18°01' W 063°03'0 0.0
2018-Feb-19 01:59N 18°01' W 063°03'0 0.0
2018-Feb-19 01:30N 18°01' W 063°03'0 0.0
2018-Feb-19 00:57N 18°01' W 063°03'2 4.1
2018-Feb-19 00:29N 17°59' W 063°03'610.4
2018-Feb-18 23:54N 17°53' W 063°01'410.2
2018-Feb-18 23:30N 17°49' W 062°60'510.3
2018-Feb-18 23:00N 17°44' W 062°58'610.4
2018-Feb-18 22:23N 17°38' W 062°57'410.3
2018-Feb-18 22:00N 17°34' W 062°56'1010.3
2018-Feb-18 21:02N 17°24' W 062°53'810.1
2018-Feb-18 20:15N 17°18' W 062°48'5 0.4
2018-Feb-18 06:12N 17°17' W 062°43'0 0.0
2018-Feb-18 05:44N 17°17' W 062°43'3 5.4
2018-Feb-18 05:08N 17°17' W 062°46'9 9.2
2018-Feb-18 04:12N 17°23' W 062°53'2 8.8
2018-Feb-18 03:59N 17°25' W 062°53'13 8.6
2018-Feb-18 02:31N 17°37' W 062°57'1 8.6
2018-Feb-18 02:22N 17°38' W 062°57'3 8.6
2018-Feb-18 01:59N 17°41' W 062°58'5 8.7
2018-Feb-18 01:28N 17°46' W 062°59'4 8.8
2018-Feb-18 01:00N 17°50' W 063°00'6 8.8
2018-Feb-18 00:19N 17°56' W 063°02'3 8.2
2018-Feb-18 00:00N 17°58' W 063°02'1 2.2
2018-Feb-17 23:29N 17°59' W 063°03'1 2.0
2018-Feb-17 22:57N 18°00' W 063°03'0 0.0
2018-Feb-17 22:30N 18°00' W 063°03'0 0.0
2018-Feb-17 21:57N 18°00' W 063°03'0 0.0
2018-Feb-17 21:26N 18°00' W 063°03'0 0.0
2018-Feb-17 20:51N 18°00' W 063°03'0 0.0
2018-Feb-17 20:25N 18°00' W 063°03'0 0.0
2018-Feb-17 19:59N 18°00' W 063°03'0 0.0
2018-Feb-17 19:27N 18°00' W 063°03'0 0.0
2018-Feb-17 19:00N 18°00' W 063°03'0 0.0
2018-Feb-17 18:23N 18°00' W 063°03'0 0.0
2018-Feb-17 17:48N 18°00' W 063°03'0 0.0
2018-Feb-17 17:29N 18°00' W 063°03'0 0.0
2018-Feb-17 16:30N 18°00' W 063°03'0 0.0
2018-Feb-17 15:43N 18°00' W 063°03'0 0.0
2018-Feb-17 15:30N 18°00' W 063°03'0 0.0
2018-Feb-17 14:58N 18°00' W 063°03'0 0.0
2018-Feb-17 14:17N 18°00' W 063°03'0 0.0
2018-Feb-17 13:59N 18°00' W 063°03'0 0.0
2018-Feb-17 13:27N 18°00' W 063°03'0 0.0
2018-Feb-17 12:59N 18°00' W 063°03'0 0.0
2018-Feb-17 12:25N 18°00' W 063°03'0 0.0
2018-Feb-17 11:58N 18°00' W 063°03'0 0.1
2018-Feb-17 11:29N 18°00' W 063°03'2 4.3
2018-Feb-17 10:58N 17°58' W 063°03'610.4
2018-Feb-17 10:25N 17°53' W 063°01'610.2
2018-Feb-17 09:50N 17°47' W 062°59'410.0
2018-Feb-17 09:29N 17°43' W 062°58'6 9.8
2018-Feb-17 08:55N 17°38' W 062°57'4 9.9
2018-Feb-17 08:29N 17°34' W 062°56'7 9.9
2018-Feb-17 07:48N 17°27' W 062°54'3 9.9
2018-Feb-17 07:28N 17°24' W 062°53'8 9.9
2018-Feb-17 06:40N 17°18' W 062°48'5 3.0
2018-Feb-17 04:52N 17°16' W 062°43'3 0.4
2018-Feb-16 21:20N 17°17' W 062°46'1010.1
2018-Feb-16 20:23N 17°24' W 062°53'1410.1
2018-Feb-16 18:58N 17°38' W 062°56'510.1
2018-Feb-16 18:30N 17°43' W 062°57'510.0
2018-Feb-16 17:57N 17°48' W 062°59'510.0
2018-Feb-16 17:28N 17°53' W 062°60'610.1
2018-Feb-16 16:53N 17°58' W 063°02'2 5.2
2018-Feb-16 16:25N 18°00' W 063°03'0 0.0
2018-Feb-16 15:47N 18°00' W 063°03'0 0.0
2018-Feb-16 14:08N 18°00' W 063°03'0 0.0
2018-Feb-16 13:58N 18°00' W 063°03'3 3.8
2018-Feb-16 13:03N 18°01' W 063°06'210.0
2018-Feb-16 12:53N 18°02' W 063°08'3 6.8
2018-Feb-16 12:29N 18°05' W 063°08'3 2.8
2018-Feb-16 11:21N 18°05' W 063°05'0 0.0
2018-Feb-16 10:58N 18°05' W 063°05'2 3.1
2018-Feb-16 10:26N 18°05' W 063°07'4 7.9
2018-Feb-16 09:54N 18°02' W 063°10'410.0
2018-Feb-16 09:28N 17°58' W 063°09'5 9.8
2018-Feb-16 08:58N 17°53' W 063°07'5 9.9
2018-Feb-16 08:28N 17°48' W 063°06'6 9.7
2018-Feb-16 07:54N 17°43' W 063°05'4 9.7
2018-Feb-16 07:28N 17°39' W 063°04'510.0
2018-Feb-16 06:58N 17°34' W 063°02'510.0
2018-Feb-16 06:29N 17°29' W 063°01'2 3.1
2018-Feb-16 06:00N 17°29' W 062°59'0 0.0
2018-Feb-16 05:25N 17°29' W 062°59'0 0.0
2018-Feb-16 04:48N 17°29' W 062°59'3 7.2
2018-Feb-16 04:24N 17°26' W 062°58'19 5.8
2018-Feb-16 01:09N 17°15' W 062°42'6 0.7
2018-Feb-15 17:27N 17°18' W 062°47'610.6
2018-Feb-15 16:53N 17°21' W 062°52'410.1
2018-Feb-15 16:29N 17°25' W 062°53'11 9.6
2018-Feb-15 15:19N 17°36' W 062°56'3 9.5
2018-Feb-15 14:57N 17°39' W 062°57'6 9.5
2018-Feb-15 14:17N 17°46' W 062°59'3 9.6
2018-Feb-15 13:55N 17°49' W 062°60'5 9.5
2018-Feb-15 13:26N 17°54' W 063°01'5 9.3
2018-Feb-15 12:57N 17°58' W 063°03'3 2.1
2018-Feb-15 11:33N 18°01' W 063°03'0 0.0
2018-Feb-15 11:28N 18°01' W 063°03'0 0.0
2018-Feb-15 10:57N 18°01' W 063°03'0 0.0
2018-Feb-15 10:26N 18°01' W 063°03'0 0.0
2018-Feb-15 09:57N 18°01' W 063°03'0 0.0
2018-Feb-15 09:25N 18°01' W 063°03'0 0.0
2018-Feb-15 08:57N 18°01' W 063°03'0 0.0
2018-Feb-15 08:30N 18°01' W 063°03'0 0.1
2018-Feb-15 07:59N 18°01' W 063°03'4 6.7
2018-Feb-15 07:27N 17°57' W 063°03'5 9.3
2018-Feb-15 06:56N 17°52' W 063°03'5 9.3
2018-Feb-15 06:22N 17°47' W 063°02'5 9.5
2018-Feb-15 05:47N 17°42' W 063°02'3 9.5
2018-Feb-15 05:27N 17°38' W 063°02'5 9.4
2018-Feb-15 04:53N 17°33' W 063°02'4 9.4
2018-Feb-15 04:30N 17°30' W 063°01'2 3.4
2018-Feb-15 03:58N 17°29' W 062°59'0 0.0
2018-Feb-15 03:26N 17°29' W 062°59'0 0.0
2018-Feb-15 02:57N 17°29' W 062°59'0 0.0
2018-Feb-15 02:29N 17°29' W 062°59'0 0.0
2018-Feb-15 02:01N 17°29' W 062°59'0 0.0
2018-Feb-15 01:28N 17°29' W 062°59'0 0.0
2018-Feb-15 01:00N 17°29' W 062°59'0 0.0
2018-Feb-15 00:28N 17°29' W 062°59'0 0.0
2018-Feb-14 23:59N 17°29' W 062°59'0 0.0
2018-Feb-14 23:29N 17°29' W 062°59'2 4.5
2018-Feb-14 23:00N 17°30' W 063°01'5 9.0
2018-Feb-14 22:28N 17°32' W 063°06'4 8.6
2018-Feb-14 21:59N 17°34' W 063°10'7 1.1
2018-Feb-14 15:40N 17°37' W 063°16'3 9.1
2018-Feb-14 15:18N 17°41' W 063°15'4 9.0
2018-Feb-14 14:53N 17°45' W 063°15'3 9.0
2018-Feb-14 14:30N 17°48' W 063°14'5 9.2
2018-Feb-14 13:59N 17°53' W 063°13'5 9.2
2018-Feb-14 13:27N 17°57' W 063°12'5 9.6
2018-Feb-14 12:59N 18°02' W 063°11'4 8.8
2018-Feb-14 12:30N 18°05' W 063°08'3 2.7
2018-Feb-14 11:33N 18°05' W 063°05'0 0.0
2018-Feb-14 11:07N 18°05' W 063°05'0 0.0
2018-Feb-14 10:49N 18°05' W 063°05'0 0.0
2018-Feb-14 10:29N 18°05' W 063°05'0 0.0
2018-Feb-14 09:53N 18°05' W 063°05'0 0.0
2018-Feb-14 08:43N 18°05' W 063°05'0 0.0
2018-Feb-14 08:21N 18°05' W 063°05'0 0.0
2018-Feb-14 07:55N 18°05' W 063°05'0 0.1
2018-Feb-14 07:22N 18°05' W 063°05'3 7.8
2018-Feb-14 07:00N 18°07' W 063°08'4 8.6
2018-Feb-14 06:30N 18°10' W 063°10'4 1.5
2018-Feb-14 03:33N 18°12' W 063°06'2 9.1
2018-Feb-14 03:22N 18°12' W 063°08'3 8.9
2018-Feb-14 03:00N 18°09' W 063°11'5 9.5
2018-Feb-14 02:30N 18°05' W 063°10'5 9.1
2018-Feb-14 02:00N 18°02' W 063°07'4 6.9
2018-Feb-14 01:27N 18°01' W 063°03'0 0.0
2018-Feb-14 00:58N 18°01' W 063°03'0 0.0
2018-Feb-14 00:10N 18°01' W 063°03'0 0.0
2018-Feb-13 23:51N 18°01' W 063°03'0 0.0
2018-Feb-13 23:22N 18°01' W 063°03'0 0.0
2018-Feb-13 22:52N 18°01' W 063°03'0 0.1
2018-Feb-13 22:28N 18°01' W 063°03'5 8.3
2018-Feb-13 21:54N 18°02' W 063°07'3 6.9
2018-Feb-13 21:27N 18°05' W 063°08'3 5.7
2018-Feb-13 20:54N 18°05' W 063°05'0 0.0
2018-Feb-13 20:30N 18°05' W 063°05'0 0.0
2018-Feb-13 19:59N 18°05' W 063°05'0 0.0
2018-Feb-13 19:23N 18°05' W 063°05'0 0.0
2018-Feb-13 18:54N 18°05' W 063°05'0 0.0
2018-Feb-13 18:29N 18°05' W 063°05'0 0.0
2018-Feb-13 17:55N 18°05' W 063°05'0 0.0
2018-Feb-13 17:20N 18°05' W 063°05'0 0.0
2018-Feb-13 16:58N 18°05' W 063°05'0 0.0
2018-Feb-13 16:24N 18°05' W 063°05'0 0.0
2018-Feb-13 15:58N 18°05' W 063°05'0 0.3
2018-Feb-13 15:20N 18°05' W 063°05'3 9.7
2018-Feb-13 15:00N 18°07' W 063°08'4 7.6
2018-Feb-13 14:29N 18°11' W 063°10'2 0.1
2018-Feb-13 03:13N 18°11' W 063°08'2 9.0
2018-Feb-13 03:00N 18°10' W 063°10'4 8.4
2018-Feb-13 02:30N 18°06' W 063°10'4 8.5
2018-Feb-13 02:00N 18°02' W 063°08'5 9.3
2018-Feb-13 01:29N 18°00' W 063°03'1 1.2
2018-Feb-13 00:50N 18°01' W 063°03'0 0.0
2018-Feb-12 23:46N 18°01' W 063°03'0 0.0
2018-Feb-12 20:17N 18°01' W 063°03'1 1.8
2018-Feb-12 19:46N 18°00' W 063°04'3 9.0
2018-Feb-12 19:23N 18°02' W 063°07'4 7.4
2018-Feb-12 18:54N 18°05' W 063°09'4 8.5
2018-Feb-12 18:27N 18°05' W 063°05'0 0.0
2018-Feb-12 18:00N 18°05' W 063°05'0 0.0
2018-Feb-12 17:22N 18°05' W 063°05'0 0.0
2018-Feb-12 17:00N 18°05' W 063°05'0 0.0
2018-Feb-12 16:16N 18°05' W 063°05'0 0.0
2018-Feb-12 16:00N 18°05' W 063°05'0 0.0
2018-Feb-12 15:06N 18°05' W 063°05'0 0.0
2018-Feb-12 14:53N 18°05' W 063°05'0 0.0
2018-Feb-12 14:26N 18°05' W 063°05'0 0.0
2018-Feb-12 14:00N 18°05' W 063°05'0 0.0
2018-Feb-12 13:24N 18°05' W 063°05'0 0.4
2018-Feb-12 13:00N 18°05' W 063°05'0 0.2
2018-Feb-12 12:28N 18°05' W 063°05'1 1.7
2018-Feb-12 11:59N 18°05' W 063°06'4 8.7
2018-Feb-12 11:29N 18°08' W 063°09'4 7.0
2018-Feb-12 10:56N 18°12' W 063°08'  
2018-Feb-09 21:59N 18°12' W 063°07'7 0.8
2018-Feb-09 12:30N 18°05' W 063°05'0 0.1
2018-Feb-09 10:30N 18°05' W 063°05'  
Track history (hours):
 
Tides and Currents Weather Stations Pressure Air Temp Water Temp Dewpoint Dewpoint Depression Visibility Wind Speed Wind Dir Waves Ship Positions

Mutty's Pride

Last reported at 2018-Feb-19 03:58 UTC. Time now 2018-Feb-19 04:13 UTC.
Position N 18°01' W 063°03'.

Length 60 m; draft 3 m.

Type: Ship. MMSI: 341504000.

Date/timePositionNaut miles runAvg speedWind from/ knotsBaromVisibWave heightAir tempDewpointWater temp
2018-Feb-19 03:58N 18°01' W 063°03'0 0.0
2018-Feb-19 03:26N 18°01' W 063°03'0 0.0
2018-Feb-19 03:00N 18°01' W 063°03'0 0.0
2018-Feb-19 02:26N 18°01' W 063°03'0 0.0
2018-Feb-19 01:59N 18°01' W 063°03'0 0.0
2018-Feb-19 01:30N 18°01' W 063°03'0 0.0
2018-Feb-19 00:57N 18°01' W 063°03'2 4.1
2018-Feb-19 00:29N 17°59' W 063°03'610.4
2018-Feb-18 23:54N 17°53' W 063°01'410.2
2018-Feb-18 23:30N 17°49' W 062°60'510.3
2018-Feb-18 23:00N 17°44' W 062°58'610.4
2018-Feb-18 22:23N 17°38' W 062°57'410.3
2018-Feb-18 22:00N 17°34' W 062°56'1010.3
2018-Feb-18 21:02N 17°24' W 062°53'810.1
2018-Feb-18 20:15N 17°18' W 062°48'5 0.4
2018-Feb-18 06:12N 17°17' W 062°43'0 0.0
2018-Feb-18 05:44N 17°17' W 062°43'3 5.4
2018-Feb-18 05:08N 17°17' W 062°46'9 9.2
2018-Feb-18 04:12N 17°23' W 062°53'2 8.8
2018-Feb-18 03:59N 17°25' W 062°53'13 8.6
2018-Feb-18 02:31N 17°37' W 062°57'1 8.6
2018-Feb-18 02:22N 17°38' W 062°57'3 8.6
2018-Feb-18 01:59N 17°41' W 062°58'5 8.7
2018-Feb-18 01:28N 17°46' W 062°59'4 8.8
2018-Feb-18 01:00N 17°50' W 063°00'6 8.8
2018-Feb-18 00:19N 17°56' W 063°02'3 8.2
2018-Feb-18 00:00N 17°58' W 063°02'1 2.2
2018-Feb-17 23:29N 17°59' W 063°03'1 2.0
2018-Feb-17 22:57N 18°00' W 063°03'0 0.0
2018-Feb-17 22:30N 18°00' W 063°03'0 0.0
2018-Feb-17 21:57N 18°00' W 063°03'0 0.0
2018-Feb-17 21:26N 18°00' W 063°03'0 0.0
2018-Feb-17 20:51N 18°00' W 063°03'0 0.0
2018-Feb-17 20:25N 18°00' W 063°03'0 0.0
2018-Feb-17 19:59N 18°00' W 063°03'0 0.0
2018-Feb-17 19:27N 18°00' W 063°03'0 0.0
2018-Feb-17 19:00N 18°00' W 063°03'0 0.0
2018-Feb-17 18:23N 18°00' W 063°03'0 0.0
2018-Feb-17 17:48N 18°00' W 063°03'0 0.0
2018-Feb-17 17:29N 18°00' W 063°03'0 0.0
2018-Feb-17 16:30N 18°00' W 063°03'0 0.0
2018-Feb-17 15:43N 18°00' W 063°03'0 0.0
2018-Feb-17 15:30N 18°00' W 063°03'0 0.0
2018-Feb-17 14:58N 18°00' W 063°03'0 0.0
2018-Feb-17 14:17N 18°00' W 063°03'0 0.0
2018-Feb-17 13:59N 18°00' W 063°03'0 0.0
2018-Feb-17 13:27N 18°00' W 063°03'0 0.0
2018-Feb-17 12:59N 18°00' W 063°03'0 0.0
2018-Feb-17 12:25N 18°00' W 063°03'0 0.0
2018-Feb-17 11:58N 18°00' W 063°03'0 0.1
2018-Feb-17 11:29N 18°00' W 063°03'2 4.3
2018-Feb-17 10:58N 17°58' W 063°03'610.4
2018-Feb-17 10:25N 17°53' W 063°01'610.2
2018-Feb-17 09:50N 17°47' W 062°59'410.0
2018-Feb-17 09:29N 17°43' W 062°58'6 9.8
2018-Feb-17 08:55N 17°38' W 062°57'4 9.9
2018-Feb-17 08:29N 17°34' W 062°56'7 9.9
2018-Feb-17 07:48N 17°27' W 062°54'3 9.9
2018-Feb-17 07:28N 17°24' W 062°53'8 9.9
2018-Feb-17 06:40N 17°18' W 062°48'5 3.0
2018-Feb-17 04:52N 17°16' W 062°43'3 0.4
2018-Feb-16 21:20N 17°17' W 062°46'1010.1
2018-Feb-16 20:23N 17°24' W 062°53'1410.1
2018-Feb-16 18:58N 17°38' W 062°56'510.1
2018-Feb-16 18:30N 17°43' W 062°57'510.0
2018-Feb-16 17:57N 17°48' W 062°59'510.0
2018-Feb-16 17:28N 17°53' W 062°60'610.1
2018-Feb-16 16:53N 17°58' W 063°02'2 5.2
2018-Feb-16 16:25N 18°00' W 063°03'0 0.0
2018-Feb-16 15:47N 18°00' W 063°03'0 0.0
2018-Feb-16 14:08N 18°00' W 063°03'0 0.0
2018-Feb-16 13:58N 18°00' W 063°03'3 3.8
2018-Feb-16 13:03N 18°01' W 063°06'210.0
2018-Feb-16 12:53N 18°02' W 063°08'3 6.8
2018-Feb-16 12:29N 18°05' W 063°08'3 2.8
2018-Feb-16 11:21N 18°05' W 063°05'0 0.0
2018-Feb-16 10:58N 18°05' W 063°05'2 3.1
2018-Feb-16 10:26N 18°05' W 063°07'4 7.9
2018-Feb-16 09:54N 18°02' W 063°10'410.0
2018-Feb-16 09:28N 17°58' W 063°09'5 9.8
2018-Feb-16 08:58N 17°53' W 063°07'5 9.9
2018-Feb-16 08:28N 17°48' W 063°06'6 9.7
2018-Feb-16 07:54N 17°43' W 063°05'4 9.7
2018-Feb-16 07:28N 17°39' W 063°04'510.0
2018-Feb-16 06:58N 17°34' W 063°02'510.0
2018-Feb-16 06:29N 17°29' W 063°01'2 3.1
2018-Feb-16 06:00N 17°29' W 062°59'0 0.0
2018-Feb-16 05:25N 17°29' W 062°59'0 0.0
2018-Feb-16 04:48N 17°29' W 062°59'3 7.2
2018-Feb-16 04:24N 17°26' W 062°58'19 5.8
2018-Feb-16 01:09N 17°15' W 062°42'6 0.7
2018-Feb-15 17:27N 17°18' W 062°47'610.6
2018-Feb-15 16:53N 17°21' W 062°52'410.1
2018-Feb-15 16:29N 17°25' W 062°53'11 9.6
2018-Feb-15 15:19N 17°36' W 062°56'3 9.5
2018-Feb-15 14:57N 17°39' W 062°57'6 9.5
2018-Feb-15 14:17N 17°46' W 062°59'3 9.6
2018-Feb-15 13:55N 17°49' W 062°60'5 9.5
2018-Feb-15 13:26N 17°54' W 063°01'5 9.3
2018-Feb-15 12:57N 17°58' W 063°03'3 2.1
2018-Feb-15 11:33N 18°01' W 063°03'0 0.0
2018-Feb-15 11:28N 18°01' W 063°03'0 0.0
2018-Feb-15 10:57N 18°01' W 063°03'0 0.0
2018-Feb-15 10:26N 18°01' W 063°03'0 0.0
2018-Feb-15 09:57N 18°01' W 063°03'0 0.0
2018-Feb-15 09:25N 18°01' W 063°03'0 0.0
2018-Feb-15 08:57N 18°01' W 063°03'0 0.0
2018-Feb-15 08:30N 18°01' W 063°03'0 0.1
2018-Feb-15 07:59N 18°01' W 063°03'4 6.7
2018-Feb-15 07:27N 17°57' W 063°03'5 9.3
2018-Feb-15 06:56N 17°52' W 063°03'5 9.3
2018-Feb-15 06:22N 17°47' W 063°02'5 9.5
2018-Feb-15 05:47N 17°42' W 063°02'3 9.5
2018-Feb-15 05:27N 17°38' W 063°02'5 9.4
2018-Feb-15 04:53N 17°33' W 063°02'4 9.4
2018-Feb-15 04:30N 17°30' W 063°01'2 3.4
2018-Feb-15 03:58N 17°29' W 062°59'0 0.0
2018-Feb-15 03:26N 17°29' W 062°59'0 0.0
2018-Feb-15 02:57N 17°29' W 062°59'0 0.0
2018-Feb-15 02:29N 17°29' W 062°59'0 0.0
2018-Feb-15 02:01N 17°29' W 062°59'0 0.0
2018-Feb-15 01:28N 17°29' W 062°59'0 0.0
2018-Feb-15 01:00N 17°29' W 062°59'0 0.0
2018-Feb-15 00:28N 17°29' W 062°59'0 0.0
2018-Feb-14 23:59N 17°29' W 062°59'0 0.0
2018-Feb-14 23:29N 17°29' W 062°59'2 4.5
2018-Feb-14 23:00N 17°30' W 063°01'5 9.0
2018-Feb-14 22:28N 17°32' W 063°06'4 8.6
2018-Feb-14 21:59N 17°34' W 063°10'7 1.1
2018-Feb-14 15:40N 17°37' W 063°16'3 9.1
2018-Feb-14 15:18N 17°41' W 063°15'4 9.0
2018-Feb-14 14:53N 17°45' W 063°15'3 9.0
2018-Feb-14 14:30N 17°48' W 063°14'5 9.2
2018-Feb-14 13:59N 17°53' W 063°13'5 9.2
2018-Feb-14 13:27N 17°57' W 063°12'5 9.6
2018-Feb-14 12:59N 18°02' W 063°11'4 8.8
2018-Feb-14 12:30N 18°05' W 063°08'3 2.7
2018-Feb-14 11:33N 18°05' W 063°05'0 0.0
2018-Feb-14 11:07N 18°05' W 063°05'0 0.0
2018-Feb-14 10:49N 18°05' W 063°05'0 0.0
2018-Feb-14 10:29N 18°05' W 063°05'0 0.0
2018-Feb-14 09:53N 18°05' W 063°05'0 0.0
2018-Feb-14 08:43N 18°05' W 063°05'0 0.0
2018-Feb-14 08:21N 18°05' W 063°05'0 0.0
2018-Feb-14 07:55N 18°05' W 063°05'0 0.1
2018-Feb-14 07:22N 18°05' W 063°05'3 7.8
2018-Feb-14 07:00N 18°07' W 063°08'4 8.6
2018-Feb-14 06:30N 18°10' W 063°10'4 1.5
2018-Feb-14 03:33N 18°12' W 063°06'2 9.1
2018-Feb-14 03:22N 18°12' W 063°08'3 8.9
2018-Feb-14 03:00N 18°09' W 063°11'5 9.5
2018-Feb-14 02:30N 18°05' W 063°10'5 9.1
2018-Feb-14 02:00N 18°02' W 063°07'4 6.9
2018-Feb-14 01:27N 18°01' W 063°03'0 0.0
2018-Feb-14 00:58N 18°01' W 063°03'0 0.0
2018-Feb-14 00:10N 18°01' W 063°03'0 0.0
2018-Feb-13 23:51N 18°01' W 063°03'0 0.0
2018-Feb-13 23:22N 18°01' W 063°03'0 0.0
2018-Feb-13 22:52N 18°01' W 063°03'0 0.1
2018-Feb-13 22:28N 18°01' W 063°03'5 8.3
2018-Feb-13 21:54N 18°02' W 063°07'3 6.9
2018-Feb-13 21:27N 18°05' W 063°08'3 5.7
2018-Feb-13 20:54N 18°05' W 063°05'0 0.0
2018-Feb-13 20:30N 18°05' W 063°05'0 0.0
2018-Feb-13 19:59N 18°05' W 063°05'0 0.0
2018-Feb-13 19:23N 18°05' W 063°05'0 0.0
2018-Feb-13 18:54N 18°05' W 063°05'0 0.0
2018-Feb-13 18:29N 18°05' W 063°05'0 0.0
2018-Feb-13 17:55N 18°05' W 063°05'0 0.0
2018-Feb-13 17:20N 18°05' W 063°05'0 0.0
2018-Feb-13 16:58N 18°05' W 063°05'0 0.0
2018-Feb-13 16:24N 18°05' W 063°05'0 0.0
2018-Feb-13 15:58N 18°05' W 063°05'0 0.3
2018-Feb-13 15:20N 18°05' W 063°05'3 9.7
2018-Feb-13 15:00N 18°07' W 063°08'4 7.6
2018-Feb-13 14:29N 18°11' W 063°10'2 0.1
2018-Feb-13 03:13N 18°11' W 063°08'2 9.0
2018-Feb-13 03:00N 18°10' W 063°10'4 8.4
2018-Feb-13 02:30N 18°06' W 063°10'4 8.5
2018-Feb-13 02:00N 18°02' W 063°08'5 9.3
2018-Feb-13 01:29N 18°00' W 063°03'1 1.2
2018-Feb-13 00:50N 18°01' W 063°03'0 0.0
2018-Feb-12 23:46N 18°01' W 063°03'0 0.0
2018-Feb-12 20:17N 18°01' W 063°03'1 1.8
2018-Feb-12 19:46N 18°00' W 063°04'3 9.0
2018-Feb-12 19:23N 18°02' W 063°07'4 7.4
2018-Feb-12 18:54N 18°05' W 063°09'4 8.5
2018-Feb-12 18:27N 18°05' W 063°05'0 0.0
2018-Feb-12 18:00N 18°05' W 063°05'0 0.0
2018-Feb-12 17:22N 18°05' W 063°05'0 0.0
2018-Feb-12 17:00N 18°05' W 063°05'0 0.0
2018-Feb-12 16:16N 18°05' W 063°05'0 0.0
2018-Feb-12 16:00N 18°05' W 063°05'0 0.0
2018-Feb-12 15:06N 18°05' W 063°05'0 0.0
2018-Feb-12 14:53N 18°05' W 063°05'0 0.0
2018-Feb-12 14:26N 18°05' W 063°05'0 0.0
2018-Feb-12 14:00N 18°05' W 063°05'0 0.0
2018-Feb-12 13:24N 18°05' W 063°05'0 0.4
2018-Feb-12 13:00N 18°05' W 063°05'0 0.2
2018-Feb-12 12:28N 18°05' W 063°05'1 1.7
2018-Feb-12 11:59N 18°05' W 063°06'4 8.7
2018-Feb-12 11:29N 18°08' W 063°09'4 7.0
2018-Feb-12 10:56N 18°12' W 063°08'  
2018-Feb-09 21:59N 18°12' W 063°07'7 0.8
2018-Feb-09 12:30N 18°05' W 063°05'0 0.1
2018-Feb-09 10:30N 18°05' W 063°05'  

Dump ship's entire track history